createdAt,value
2018-05-21T00:00:16.599Z,101485.44
2018-05-21T00:02:44.725Z,101476.91
2018-05-21T00:05:12.846Z,101479.02
2018-05-21T00:07:40.993Z,101474.86
2018-05-21T00:10:09.107Z,101476.31
2018-05-21T00:12:37.206Z,101472.06
2018-05-21T00:15:05.369Z,101471.83
2018-05-21T00:17:33.485Z,101472.23
2018-05-21T00:20:01.598Z,101466.84
2018-05-21T00:22:29.715Z,101469.49
2018-05-21T00:24:57.857Z,101462.23
2018-05-21T00:27:25.975Z,101469.62
2018-05-21T00:29:54.101Z,101461.11
2018-05-21T00:32:22.222Z,101459.55
2018-05-21T00:34:50.333Z,101455.08
2018-05-21T00:37:18.479Z,101453.30
2018-05-21T00:39:46.660Z,101455.33
2018-05-21T00:42:14.787Z,101456.16
2018-05-21T00:44:42.940Z,101456.34
2018-05-21T00:47:11.076Z,101450.41
2018-05-21T00:49:39.193Z,101449.82
2018-05-21T00:52:07.329Z,101450.51
2018-05-21T00:54:35.441Z,101443.31
2018-05-21T00:57:03.573Z,101445.84
2018-05-21T00:59:31.687Z,101436.30
2018-05-21T01:01:59.823Z,101442.12
2018-05-21T01:04:27.948Z,101442.17
2018-05-21T01:06:56.091Z,101438.65
2018-05-21T01:09:24.188Z,101437.39
2018-05-21T01:11:53.133Z,101440.28
2018-05-21T01:14:21.274Z,101434.86
2018-05-21T01:16:49.385Z,101439.16
2018-05-21T01:19:17.501Z,101438.93
2018-05-21T01:21:45.779Z,101436.38
2018-05-21T01:24:13.883Z,101436.13
2018-05-21T01:26:42.016Z,101432.91
2018-05-21T01:29:10.293Z,101434.66
2018-05-21T01:31:38.422Z,101426.54
2018-05-21T01:34:06.544Z,101426.13
2018-05-21T01:36:34.685Z,101430.08
2018-05-21T01:39:02.802Z,101427.64
2018-05-21T01:41:30.924Z,101434.03
2018-05-21T01:43:59.076Z,101430.28
2018-05-21T01:46:27.166Z,101428.30
2018-05-21T01:48:55.270Z,101433.40
2018-05-21T01:51:23.410Z,101426.48
2018-05-21T01:53:51.527Z,101426.30
2018-05-21T01:56:19.637Z,101427.70
2018-05-21T01:58:47.971Z,101420.27
2018-05-21T02:01:16.071Z,101416.16
2018-05-21T02:03:44.170Z,101408.64
2018-05-21T02:06:12.301Z,101409.61
2018-05-21T02:08:40.523Z,101409.44
2018-05-21T02:11:08.550Z,101413.31
2018-05-21T02:13:36.681Z,101414.55
2018-05-21T02:16:04.818Z,101410.47
2018-05-21T02:18:32.960Z,101407.02
2018-05-21T02:21:01.427Z,101411.53
2018-05-21T02:23:29.514Z,101402.91
2018-05-21T02:25:57.637Z,101403.34
2018-05-21T02:28:25.765Z,101398.58
2018-05-21T02:30:53.902Z,101397.89
2018-05-21T02:33:22.028Z,101392.59
2018-05-21T02:35:50.165Z,101389.16
2018-05-21T02:38:18.260Z,101382.56
2018-05-21T02:40:46.369Z,101391.32
2018-05-21T02:43:14.491Z,101389.94
2018-05-21T02:45:42.601Z,101384.34
2018-05-21T02:48:10.716Z,101389.99
2018-05-21T02:50:39.668Z,101384.42
2018-05-21T02:53:07.805Z,101386.70
2018-05-21T02:55:35.949Z,101385.78
2018-05-21T02:58:04.063Z,101379.80
2018-05-21T03:00:32.189Z,101376.27
2018-05-21T03:03:00.303Z,101373.95
2018-05-21T03:05:28.427Z,101373.59
2018-05-21T03:07:56.531Z,101371.36
2018-05-21T03:10:24.636Z,101372.81
2018-05-21T03:12:52.787Z,101375.45
2018-05-21T03:15:20.929Z,101373.42
2018-05-21T03:17:49.060Z,101371.09
2018-05-21T03:20:17.197Z,101369.59
2018-05-21T03:22:45.310Z,101365.09
2018-05-21T03:25:13.456Z,101368.30
2018-05-21T03:27:41.576Z,101372.33
2018-05-21T03:30:09.716Z,101373.54
2018-05-21T03:32:37.825Z,101371.39
2018-05-21T03:35:05.938Z,101376.72
2018-05-21T03:37:34.056Z,101374.28
2018-05-21T03:40:02.417Z,101378.57
2018-05-21T03:42:30.534Z,101384.42
2018-05-21T03:44:58.673Z,101384.66
2018-05-21T03:47:26.775Z,101387.32
2018-05-21T03:49:54.899Z,101387.38
2018-05-21T03:52:23.017Z,101381.92
2018-05-21T03:54:51.130Z,101388.34
2018-05-21T03:57:19.494Z,101390.98
2018-05-21T03:59:59.595Z,101388.30
2018-05-21T04:02:39.688Z,101385.55
2018-05-21T04:05:07.801Z,101383.97
2018-05-21T04:07:35.932Z,101382.24
2018-05-21T04:10:04.977Z,101385.80
2018-05-21T04:12:33.150Z,101380.45
2018-05-21T04:15:01.288Z,101384.72
2018-05-21T04:17:29.480Z,101378.20
2018-05-21T04:19:57.583Z,101377.77
2018-05-21T04:22:25.705Z,101373.03
2018-05-21T04:24:53.851Z,101374.12
2018-05-21T04:27:21.952Z,101375.28
2018-05-21T04:29:50.091Z,101376.00
2018-05-21T04:32:18.239Z,101368.65
2018-05-21T04:34:46.349Z,101367.55
2018-05-21T04:37:14.464Z,101364.75
2018-05-21T04:39:42.717Z,101361.44
2018-05-21T04:42:10.836Z,101362.89
2018-05-21T04:44:38.962Z,101365.19
2018-05-21T04:47:07.102Z,101361.94
2018-05-21T04:49:35.208Z,101357.96
2018-05-21T04:52:03.328Z,101359.20
2018-05-21T04:54:31.461Z,101354.72
2018-05-21T04:56:59.592Z,101354.52
2018-05-21T04:59:27.691Z,101360.77
2018-05-21T05:01:55.817Z,101351.10
2018-05-21T05:04:23.938Z,101346.40
2018-05-21T05:06:52.053Z,101351.61
2018-05-21T05:09:20.202Z,101350.08
2018-05-21T05:11:48.332Z,101351.19
2018-05-21T05:14:16.452Z,101349.28
2018-05-21T05:16:44.582Z,101350.27
2018-05-21T05:19:12.696Z,101347.36
2018-05-21T05:21:40.806Z,101348.14
2018-05-21T05:24:08.934Z,101344.62
2018-05-21T05:26:37.092Z,101342.03
2018-05-21T05:29:05.201Z,101341.77
2018-05-21T05:31:33.339Z,101340.03
2018-05-21T05:34:01.461Z,101335.92
2018-05-21T05:36:29.568Z,101331.49
2018-05-21T05:38:57.681Z,101335.34
2018-05-21T05:41:25.805Z,101332.96
2018-05-21T05:43:53.915Z,101328.92
2018-05-21T05:46:22.047Z,101332.69
2018-05-21T05:48:50.206Z,101339.09
2018-05-21T05:51:18.286Z,101329.52
2018-05-21T05:53:47.007Z,101327.45
2018-05-21T05:56:15.133Z,101329.16
2018-05-21T05:58:43.307Z,101325.77
2018-05-21T06:01:11.389Z,101322.28
2018-05-21T06:03:39.646Z,101315.06
2018-05-21T06:06:07.643Z,101317.62
2018-05-21T06:08:35.772Z,101317.22
2018-05-21T06:11:03.913Z,101310.01
2018-05-21T06:13:32.035Z,101314.77
2018-05-21T06:16:00.165Z,101315.23
2018-05-21T06:18:28.284Z,101308.81
2018-05-21T06:20:56.405Z,101307.29
2018-05-21T06:23:24.541Z,101313.11
2018-05-21T06:25:52.720Z,101312.20
2018-05-21T06:28:20.774Z,101311.61
2018-05-21T06:30:48.892Z,101300.55
2018-05-21T06:33:16.994Z,101300.23
2018-05-21T06:35:45.113Z,101303.52
2018-05-21T06:38:13.425Z,101302.30
2018-05-21T06:40:41.566Z,101300.23
2018-05-21T06:43:09.696Z,101301.30
2018-05-21T06:45:37.840Z,101297.86
2018-05-21T06:48:05.938Z,101298.33
2018-05-21T06:50:34.056Z,101292.69
2018-05-21T06:53:02.167Z,101289.44
2018-05-21T06:55:30.285Z,101293.77
2018-05-21T06:57:58.387Z,101288.55
2018-05-21T07:00:26.535Z,101291.47
2018-05-21T07:02:54.653Z,101296.56
2018-05-21T07:05:22.750Z,101282.73
2018-05-21T07:07:50.918Z,101279.65
2018-05-21T07:10:19.002Z,101278.61
2018-05-21T07:12:47.125Z,101280.01
2018-05-21T07:15:15.256Z,101279.34
2018-05-21T07:17:43.366Z,101277.02
2018-05-21T07:20:11.478Z,101283.48
2018-05-21T07:22:39.609Z,101284.75
2018-05-21T07:25:07.734Z,101274.11
2018-05-21T07:27:35.873Z,101271.39
2018-05-21T07:30:04.041Z,101268.98
2018-05-21T07:32:32.187Z,101262.45
2018-05-21T07:35:00.306Z,101260.06
2018-05-21T07:37:28.400Z,101254.33
2018-05-21T07:39:56.518Z,101256.22
2018-05-21T07:42:24.641Z,101254.87
2018-05-21T07:44:52.818Z,101252.98
2018-05-21T07:47:20.883Z,101258.44
2018-05-21T07:49:49.009Z,101254.88
2018-05-21T07:52:17.141Z,101253.64
2018-05-21T07:54:45.265Z,101256.80
2018-05-21T07:57:13.385Z,101252.14
2018-05-21T07:59:41.538Z,101245.88
2018-05-21T08:02:09.648Z,101250.11
2018-05-21T08:04:37.768Z,101243.80
2018-05-21T08:07:05.927Z,101241.35
2018-05-21T08:09:34.040Z,101245.06
2018-05-21T08:12:02.459Z,101246.95
2018-05-21T08:14:30.680Z,101240.13
2018-05-21T08:16:58.742Z,101238.36
2018-05-21T08:19:26.853Z,101232.75
2018-05-21T08:21:54.993Z,101238.35
2018-05-21T08:24:23.379Z,101231.77
2018-05-21T08:26:51.241Z,101225.48
2018-05-21T08:29:19.537Z,101226.27
2018-05-21T08:31:47.652Z,101230.13
2018-05-21T08:34:15.807Z,101228.91
2018-05-21T08:36:43.923Z,101224.51
2018-05-21T08:39:12.049Z,101226.50
2018-05-21T08:41:40.183Z,101220.88
2018-05-21T08:44:08.313Z,101216.08
2018-05-21T08:46:36.430Z,101209.02
2018-05-21T08:49:04.559Z,101207.44
2018-05-21T08:51:32.670Z,101207.22
2018-05-21T08:54:00.816Z,101209.84
2018-05-21T08:56:29.008Z,101206.14
2018-05-21T08:58:57.286Z,101197.23
2018-05-21T09:01:25.404Z,101201.09
2018-05-21T09:03:53.529Z,101196.29
2018-05-21T09:06:21.681Z,101192.12
2018-05-21T09:08:49.779Z,101187.34
2018-05-21T09:11:17.901Z,101187.61
2018-05-21T09:13:46.036Z,101183.86
2018-05-21T09:16:14.236Z,101182.41
2018-05-21T09:18:42.291Z,101175.53
2018-05-21T09:21:10.426Z,101180.64
2018-05-21T09:23:38.559Z,101172.42
2018-05-21T09:26:06.737Z,101171.66
2018-05-21T09:28:34.869Z,101154.75
2018-05-21T09:31:02.967Z,101156.20
2018-05-21T09:33:31.084Z,101167.44
2018-05-21T09:35:59.214Z,101157.84
2018-05-21T09:38:27.332Z,101157.27
2018-05-21T09:40:55.456Z,101154.36
2018-05-21T09:43:23.935Z,101152.28
2018-05-21T09:45:52.052Z,101158.43
2018-05-21T09:48:20.180Z,101160.75
2018-05-21T09:50:48.305Z,101154.24
2018-05-21T09:53:16.410Z,101143.37
2018-05-21T09:55:44.547Z,101145.55
2018-05-21T09:58:12.669Z,101145.12
2018-05-21T10:00:40.789Z,101144.88
2018-05-21T10:03:08.916Z,101148.34
2018-05-21T10:05:37.062Z,101135.22
2018-05-21T10:08:05.195Z,101135.73
2018-05-21T10:10:33.282Z,101133.80
2018-05-21T10:13:01.433Z,101121.06
2018-05-21T10:15:30.002Z,101124.84
2018-05-21T10:17:58.136Z,101124.72
2018-05-21T10:20:26.273Z,101127.55
2018-05-21T10:22:54.366Z,101120.09
2018-05-21T10:25:22.638Z,101122.95
2018-05-21T10:27:50.805Z,101126.20
2018-05-21T10:30:18.933Z,101114.27
2018-05-21T10:32:47.040Z,101112.06
2018-05-21T10:35:15.178Z,101108.77
2018-05-21T10:37:43.306Z,101098.56
2018-05-21T10:40:11.483Z,101104.34
2018-05-21T10:42:39.612Z,101100.80
2018-05-21T10:45:07.725Z,101095.03
2018-05-21T10:47:35.840Z,101095.30
2018-05-21T10:50:03.982Z,101094.83
2018-05-21T10:52:32.094Z,101084.99
2018-05-21T10:55:00.236Z,101089.49
2018-05-21T10:57:28.381Z,101082.21
2018-05-21T10:59:56.471Z,101082.67
2018-05-21T11:02:24.633Z,101082.25
2018-05-21T11:04:52.953Z,101070.89
2018-05-21T11:07:21.081Z,101069.33
2018-05-21T11:09:49.184Z,101068.80
2018-05-21T11:12:17.418Z,101067.03
2018-05-21T11:14:45.438Z,101054.30
2018-05-21T11:17:13.554Z,101053.68
2018-05-21T11:19:41.703Z,101059.14
2018-05-21T11:22:09.814Z,101053.77
2018-05-21T11:24:37.966Z,101055.06
2018-05-21T11:27:06.076Z,101054.76
2018-05-21T11:29:34.216Z,101051.97
2018-05-21T11:32:02.488Z,101053.41
2018-05-21T11:34:30.525Z,101044.50
2018-05-21T11:36:58.640Z,101040.71
2018-05-21T11:39:26.762Z,101039.38
2018-05-21T11:41:55.090Z,101026.53
2018-05-21T11:44:23.220Z,101022.62
2018-05-21T11:46:51.329Z,101021.95
2018-05-21T11:49:19.471Z,101003.91
2018-05-21T11:51:47.593Z,101006.73
2018-05-21T11:54:15.733Z,101011.24
2018-05-21T11:56:43.871Z,101006.30
2018-05-21T11:59:11.967Z,101002.96
2018-05-21T12:01:40.092Z,100992.28
2018-05-21T12:04:08.221Z,100998.16
2018-05-21T12:06:36.342Z,100991.44
2018-05-21T12:09:04.455Z,100980.10
2018-05-21T12:11:32.567Z,100981.26
2018-05-21T12:14:00.712Z,100980.53
2018-05-21T12:16:28.826Z,100975.27
2018-05-21T12:18:56.953Z,100978.06
2018-05-21T12:21:25.091Z,100971.12
2018-05-21T12:23:53.224Z,100966.08
2018-05-21T12:26:21.557Z,100968.53
2018-05-21T12:28:49.685Z,100973.66
2018-05-21T12:31:17.779Z,100966.92
2018-05-21T12:33:45.902Z,100954.04
2018-05-21T12:36:14.025Z,100953.20
2018-05-21T12:38:42.139Z,100956.45
2018-05-21T12:41:10.259Z,100959.56
2018-05-21T12:43:38.451Z,100954.45
2018-05-21T12:46:06.529Z,100952.61
2018-05-21T12:48:34.657Z,100942.52
2018-05-21T12:51:02.773Z,100948.58
2018-05-21T12:53:30.878Z,100950.27
2018-05-21T12:55:59.012Z,100946.52
2018-05-21T12:58:27.161Z,100946.72
2018-05-21T13:00:56.105Z,100949.44
2018-05-21T13:03:24.241Z,100934.83
2018-05-21T13:05:52.348Z,100939.72
2018-05-21T13:08:20.473Z,100943.83
2018-05-21T13:10:48.583Z,100941.30
2018-05-21T13:13:16.709Z,100947.93
2018-05-21T13:15:44.839Z,100944.31
2018-05-21T13:18:12.974Z,100935.70
2018-05-21T13:20:41.071Z,100932.43
2018-05-21T13:23:09.197Z,100934.16
2018-05-21T13:25:37.317Z,100921.66
2018-05-21T13:28:05.455Z,100913.80
2018-05-21T13:30:33.587Z,100924.48
2018-05-21T13:33:05.155Z,100922.50
2018-05-21T13:35:33.277Z,100920.41
2018-05-21T13:38:01.382Z,100901.75
2018-05-21T13:40:29.552Z,100907.34
2018-05-21T13:42:57.751Z,100908.17
2018-05-21T13:45:25.854Z,100904.70
2018-05-21T13:47:53.966Z,100904.72
2018-05-21T13:50:22.093Z,100896.70
2018-05-21T13:52:50.235Z,100892.78
2018-05-21T13:55:18.376Z,100887.30
2018-05-21T13:57:46.489Z,100884.48
2018-05-21T14:00:14.612Z,100887.71
2018-05-21T14:02:42.754Z,100880.91
2018-05-21T14:05:10.882Z,100873.95
2018-05-21T14:07:38.966Z,100875.85
2018-05-21T14:10:10.585Z,100878.68
2018-05-21T14:12:38.736Z,100865.11
2018-05-21T14:15:06.790Z,100863.17
2018-05-21T14:17:34.919Z,100862.95
2018-05-21T14:20:03.102Z,100861.75
2018-05-21T14:22:31.204Z,100861.97
2018-05-21T14:24:59.341Z,100861.97
2018-05-21T14:27:31.646Z,100858.40
2018-05-21T14:29:59.795Z,100860.58
2018-05-21T14:32:27.931Z,100852.70
2018-05-21T14:34:56.054Z,100859.39
2018-05-21T14:37:24.184Z,100857.70
2018-05-21T14:39:52.302Z,100856.84
2018-05-21T14:42:20.414Z,100851.78
2018-05-21T14:44:48.546Z,100847.64
2018-05-21T14:47:16.736Z,100839.86
2018-05-21T14:49:45.327Z,100842.62
2018-05-21T14:52:13.463Z,100832.33
2018-05-21T14:54:41.741Z,100825.52
2018-05-21T14:57:09.889Z,100823.67
2018-05-21T14:59:38.947Z,100814.57
2018-05-21T15:02:07.111Z,100818.56
2018-05-21T15:04:35.824Z,100817.64
2018-05-21T15:07:03.931Z,100816.26
2018-05-21T15:09:32.121Z,100810.14
2018-05-21T15:12:00.221Z,100805.55
2018-05-21T15:14:28.411Z,100808.36
2018-05-21T15:16:56.549Z,100809.77
2018-05-21T15:19:24.732Z,100795.52
2018-05-21T15:21:52.845Z,100801.69
2018-05-21T15:24:21.000Z,100789.41
2018-05-21T15:26:49.117Z,100785.22
2018-05-21T15:29:17.320Z,100775.45
2018-05-21T15:31:45.589Z,100785.69
2018-05-21T15:34:17.165Z,100789.66
2018-05-21T15:36:45.285Z,100784.59
2018-05-21T15:39:13.399Z,100785.89
2018-05-21T15:41:41.522Z,100787.23
2018-05-21T15:44:09.655Z,100780.05
2018-05-21T15:46:37.811Z,100787.25
2018-05-21T15:49:05.930Z,100785.00
2018-05-21T15:51:34.078Z,100781.58
2018-05-21T15:54:02.182Z,100778.59
2018-05-21T15:56:30.305Z,100779.20
2018-05-21T15:58:58.452Z,100775.61
2018-05-21T16:01:26.600Z,100771.13
2018-05-21T16:03:54.711Z,100772.42
2018-05-21T16:06:22.852Z,100766.86
2018-05-21T16:08:50.981Z,100770.92
2018-05-21T16:11:19.099Z,100763.15
2018-05-21T16:13:47.320Z,100768.39
2018-05-21T16:16:15.452Z,100768.30
2018-05-21T16:18:43.583Z,100770.64
2018-05-21T16:21:11.793Z,100765.87
2018-05-21T16:23:39.911Z,100765.12
2018-05-21T16:26:08.012Z,100765.77
2018-05-21T16:28:37.019Z,100760.88
2018-05-21T16:31:05.175Z,100769.67
2018-05-21T16:33:33.439Z,100770.20
2018-05-21T16:36:01.584Z,100767.39
2018-05-21T16:38:29.709Z,100765.28
2018-05-21T16:40:57.825Z,100770.80
2018-05-21T16:43:29.799Z,100770.57
2018-05-21T16:45:57.932Z,100774.34
2018-05-21T16:48:26.038Z,100767.20
2018-05-21T16:50:54.138Z,100771.02
2018-05-21T16:53:22.297Z,100773.98
2018-05-21T16:55:50.416Z,100769.12
2018-05-21T16:58:18.515Z,100771.27
2018-05-21T17:00:46.669Z,100772.91
2018-05-21T17:03:14.778Z,100769.52
2018-05-21T17:05:42.886Z,100773.22
2018-05-21T17:08:11.022Z,100774.02
2018-05-21T17:10:39.115Z,100769.23
2018-05-21T17:13:07.245Z,100767.03
2018-05-21T17:15:35.350Z,100759.30
2018-05-21T17:18:03.455Z,100772.16
2018-05-21T17:20:31.590Z,100768.95
2018-05-21T17:22:59.738Z,100769.91
2018-05-21T17:25:27.866Z,100764.08
2018-05-21T17:27:55.985Z,100759.45
2018-05-21T17:30:24.116Z,100755.15
2018-05-21T17:32:52.286Z,100765.73
2018-05-21T17:35:20.445Z,100755.58
2018-05-21T17:37:48.576Z,100764.00
2018-05-21T17:40:16.696Z,100762.05
2018-05-21T17:42:44.832Z,100755.55
2018-05-21T17:45:12.973Z,100753.55
2018-05-21T17:47:41.093Z,100760.20
2018-05-21T17:50:09.210Z,100755.34
2018-05-21T17:52:37.355Z,100756.83
2018-05-21T17:55:05.506Z,100760.16
2018-05-21T17:57:33.618Z,100762.02
2018-05-21T18:00:01.815Z,100760.83
2018-05-21T18:02:29.915Z,100768.02
2018-05-21T18:04:58.137Z,100767.86
2018-05-21T18:07:26.285Z,100771.80
2018-05-21T18:09:54.427Z,100765.06
2018-05-21T18:12:22.608Z,100767.27
2018-05-21T18:14:50.728Z,100772.24
2018-05-21T18:17:18.846Z,100765.84
2018-05-21T18:19:46.962Z,100767.91
2018-05-21T18:22:18.125Z,100768.17
2018-05-21T18:24:46.237Z,100767.89
2018-05-21T18:27:14.361Z,100775.25
2018-05-21T18:29:42.498Z,100773.48
2018-05-21T18:32:10.668Z,100772.59
2018-05-21T18:34:38.755Z,100770.16
2018-05-21T18:37:06.912Z,100762.23
2018-05-21T18:39:35.022Z,100762.08
2018-05-21T18:42:03.207Z,100766.09
2018-05-21T18:44:31.269Z,100760.45
2018-05-21T18:46:59.404Z,100762.98
2018-05-21T18:49:27.514Z,100756.84
2018-05-21T18:51:55.877Z,100760.14
2018-05-21T18:54:23.974Z,100755.41
2018-05-21T18:56:52.095Z,100755.08
2018-05-21T18:59:20.357Z,100754.17
2018-05-21T19:01:48.525Z,100764.94
2018-05-21T19:04:16.712Z,100761.19
2018-05-21T19:06:45.013Z,100758.59
2018-05-21T19:09:13.159Z,100756.16
2018-05-21T19:11:41.287Z,100754.99
2018-05-21T19:14:09.423Z,100756.50
2018-05-21T19:16:37.542Z,100760.86
2018-05-21T19:19:05.664Z,100765.70
2018-05-21T19:21:33.827Z,100761.42
2018-05-21T19:24:01.983Z,100763.98
2018-05-21T19:26:30.094Z,100764.03
2018-05-21T19:28:58.225Z,100764.34
2018-05-21T19:31:26.331Z,100767.12
2018-05-21T19:33:55.364Z,100763.66
2018-05-21T19:36:24.369Z,100764.25
2018-05-21T19:38:52.486Z,100770.19
2018-05-21T19:41:20.608Z,100771.30
2018-05-21T19:43:48.754Z,100772.22
2018-05-21T19:46:16.858Z,100776.10
2018-05-21T19:48:44.998Z,100772.41
2018-05-21T19:51:13.141Z,100773.03
2018-05-21T19:53:41.307Z,100784.45
2018-05-21T19:56:09.402Z,100782.20
2018-05-21T19:58:37.552Z,100789.67
2018-05-21T20:01:05.688Z,100791.92
2018-05-21T20:03:33.810Z,100791.01
2018-05-21T20:06:02.040Z,100793.52
2018-05-21T20:08:30.160Z,100794.78
2018-05-21T20:10:58.325Z,100796.30
2018-05-21T20:13:26.593Z,100791.58
2018-05-21T20:15:54.690Z,100787.47
2018-05-21T20:18:33.889Z,100793.67
2018-05-21T20:21:02.026Z,100794.94
2018-05-21T20:23:30.194Z,100795.54
2018-05-21T20:25:58.451Z,100791.47
2018-05-21T20:28:29.965Z,100793.14
2018-05-21T20:30:58.124Z,100795.00
2018-05-21T20:33:26.641Z,100787.38
2018-05-21T20:35:54.779Z,100791.88
2018-05-21T20:38:22.892Z,100793.55
2018-05-21T20:40:51.117Z,100792.70
2018-05-21T20:43:19.253Z,100789.20
2018-05-21T20:45:47.491Z,100793.50
2018-05-21T20:48:15.667Z,100795.44
2018-05-21T20:50:43.774Z,100791.33
2018-05-21T20:53:11.875Z,100796.05
2018-05-21T20:55:40.024Z,100796.77
2018-05-21T20:58:08.141Z,100799.58
2018-05-21T21:00:36.316Z,100795.20
2018-05-21T21:03:04.703Z,100796.87
2018-05-21T21:05:32.831Z,100803.04
2018-05-21T21:08:00.957Z,100810.61
2018-05-21T21:10:29.323Z,100820.37
2018-05-21T21:12:57.429Z,100853.63
2018-05-21T21:15:25.530Z,100849.52
2018-05-21T21:17:53.648Z,100851.64
2018-05-21T21:20:21.766Z,100846.48
2018-05-21T21:22:50.022Z,100850.63
2018-05-21T21:25:18.141Z,100848.93
2018-05-21T21:27:49.404Z,100848.62
2018-05-21T21:30:17.520Z,100851.22
2018-05-21T21:32:45.652Z,100846.61
2018-05-21T21:35:13.776Z,100849.82
2018-05-21T21:37:41.891Z,100847.88
2018-05-21T21:40:10.037Z,100850.36
2018-05-21T21:42:38.141Z,100847.37
2018-05-21T21:45:06.273Z,100849.64
2018-05-21T21:47:34.410Z,100840.28
2018-05-21T21:50:02.539Z,100841.86
2018-05-21T21:52:30.658Z,100843.80
2018-05-21T21:54:58.780Z,100842.30
2018-05-21T21:57:26.916Z,100842.46
2018-05-21T21:59:55.047Z,100838.67
2018-05-21T22:02:23.172Z,100833.67
2018-05-21T22:04:51.288Z,100836.96
2018-05-21T22:07:19.390Z,100832.74
2018-05-21T22:09:47.617Z,100832.25
2018-05-21T22:12:15.727Z,100823.20
2018-05-21T22:14:43.846Z,100832.66
2018-05-21T22:17:11.952Z,100836.00
2018-05-21T22:19:40.092Z,100830.84
2018-05-21T22:22:08.213Z,100826.02
2018-05-21T22:24:36.356Z,100824.75
2018-05-21T22:27:04.479Z,100823.29
2018-05-21T22:29:32.612Z,100828.35
2018-05-21T22:32:01.003Z,100831.98
2018-05-21T22:34:29.128Z,100827.35
2018-05-21T22:36:57.219Z,100818.80
2018-05-21T22:39:25.373Z,100827.68
2018-05-21T22:41:53.463Z,100828.41
2018-05-21T22:44:21.577Z,100824.38
2018-05-21T22:46:49.700Z,100824.38
2018-05-21T22:49:17.813Z,100823.69
2018-05-21T22:51:46.021Z,100825.72
2018-05-21T22:54:19.946Z,100823.17
2018-05-21T22:56:48.053Z,100820.41
2018-05-21T22:59:16.199Z,100821.09
2018-05-21T23:01:44.399Z,100816.70
2018-05-21T23:04:12.532Z,100818.66
2018-05-21T23:06:40.700Z,100818.92
2018-05-21T23:09:08.847Z,100821.59
2018-05-21T23:11:36.993Z,100817.88
2018-05-21T23:14:05.114Z,100815.52
2018-05-21T23:16:33.413Z,100820.67
2018-05-21T23:19:01.536Z,100819.48
2018-05-21T23:21:29.653Z,100819.36
2018-05-21T23:23:57.971Z,100812.50
2018-05-21T23:26:26.107Z,100816.85
2018-05-21T23:28:54.227Z,100816.20
2018-05-21T23:31:22.368Z,100816.80
2018-05-21T23:33:50.467Z,100809.55
2018-05-21T23:36:18.578Z,100806.03
2018-05-21T23:38:46.707Z,100813.95
2018-05-21T23:41:14.830Z,100809.45
2018-05-21T23:43:42.947Z,100815.73
2018-05-21T23:46:11.100Z,100808.08
2018-05-21T23:48:39.202Z,100808.51
2018-05-21T23:51:07.402Z,100803.98
2018-05-21T23:53:35.468Z,100797.89
2018-05-21T23:56:03.608Z,100796.56
2018-05-21T23:58:31.736Z,100797.09
